默认 日期 大小 文件数 浏览量 最新下载 xml
en 2022磁力链接相关资源由用户搜索指令自动获取,结果来源于网络,本站不存储任何资料,亦不承担任何责任,请于24小时内删除,搜索到1624个磁力,用时17ms。
    {"Descargado desde alt-torrent.com.txt": 83, "Sin novedad en el frente (2022) WEBDL 1080p LAT - ZeiZ.jpg": 8331, "Sin novedad en el frente (2022) WEBDL 1080p LAT - ZeiZ.mkv": 6176132211}
创建时间: 2022-11-21 07:30:34 大小:5.75 GB 文件数量:3 热度:8 最近下载:2025-09-20 02:29:01
    ... torrentgalaxy.to .txt": 715, "08. En Är För Mycket och ...
创建时间: 2022-11-22 07:32:51 大小:237.01 MB 文件数量:21 热度:3 最近下载:2025-01-21 21:15:11
    {"Readme.txt": 603, "0. Websites you may like": {"1. Get Free Premium Accounts Daily On Our Discord Server!.txt": 1347, "3. FreeCoursesOnline.me Download Udacity, Masterclass, Lynda, PHLearn, etc Free.url": 290, "2. OneHack.us Premium Cracked Accounts- ...
创建时间: 2022-11-22 16:25:02 大小:4.62 GB 文件数量:9 热度:4 最近下载:2025-01-09 18:46:05
    {"[TGx]Downloaded from torrentgalaxy.to .txt": 715, "Obi-Wan Kenobi A Jedi's Return (2022) 720p DSNP WEB-DL [TR-EN-DE] DDP5.1 H264-TURG.mkv": 1805912279}
创建时间: 2022-11-22 19:28:51 大小:1.68 GB 文件数量:2 热度:3 最近下载:2025-01-19 07:56:09
    {"Readme.txt": 574, "0. Websites you may like": {"1. Get Free Premium Accounts Daily On Our Discord Server!.txt": 1347, "3. FreeCoursesOnline.me Download Udacity, Masterclass, Lynda, PHLearn, etc Free.url": 290, "2. OneHack.us Premium Cracked Accounts- ...
创建时间: 2022-11-23 08:19:28 大小:1.34 GB 文件数量:6 热度:3 最近下载:2025-02-08 18:28:06
    ... 1780859491, "1899 (2022) S01E02 1080p NF WEB-DL [TR-EN-DE] DDP5 ... 1697855647, "1899 (2022) S01E03 1080p NF WEB-DL [TR-EN-DE] DDP5 ... 1746439048, "1899 (2022) S01E04 1080p NF WEB-DL [TR-EN-DE] DDP5 ... 1378294032, "1899 (2022) S01E05 1080p NF WEB-DL [TR-EN-DE] DDP5 ...
创建时间: 2022-11-23 22:35:08 大小:12.2 GB 文件数量:8 热度:10 最近下载:2025-08-01 11:43:02
    {"[TGx]Downloaded from torrentgalaxy.to .txt": 715, "The Contractor (2022) 1080p BEiN WEB-DL [TR-EN] AAC H264 TURG.mkv": 1985707098}
创建时间: 2022-11-24 06:04:04 大小:1.85 GB 文件数量:2 热度:3 最近下载:2025-02-08 23:17:06
    {"AtomoHD CX.url": 119, "ATOMOHD CANAL TELEGRAM.url": 114, "Lunana un yak en la escuela (2022) [BluRay Rip][AC3 5.1 Castellano][www.nucleohd.com].avi": 1755087216}
创建时间: 2022-11-24 16:20:58 大小:1.63 GB 文件数量:3 热度:20 最近下载:2025-08-15 08:10:01
    ... .iso": 5970708480, "en-us_windows_10_business_editions_version_22h2_updated_nov_2022_x86_dvd_46e48ad9.iso": 4200103936, "en-us_windows_10_consumer_editions_version_22h2_updated_nov_2022_x64_dvd_7fd29387.iso": 6120681472 ...
创建时间: 2022-11-24 20:14:49 大小:19.18 GB 文件数量:4 热度:3 最近下载:2025-01-19 00:22:12
    ... url": 114, "Navidad en la granja (2022) [BluRay 720p X264 ... rar": 1038090240, "Navidad en la granja (2022) [BluRay 720p X264 MKV ... rar": 1038090240, "Navidad en la granja (2022) [BluRay 720p X264 ... rar": 1038090240, "Navidad en la granja (2022) [BluRay 720p X264 ...
创建时间: 2022-11-24 22:15:43 大小:3.73 GB 文件数量:6 热度:2 最近下载:2025-01-22 10:31:09
    {"01.UFC.272.Rannie.prelimy.EN.7turza.mkv": 5387690208}
创建时间: 2022-11-26 21:51:11 大小:5.02 GB 文件数量:1 热度:6 最近下载:2025-02-11 02:02:01
    {"House of the Dragon (2022) S01E01 1080p DUAL [TR-EN] WEBRip DDP5.1 ... of the Dragon (2022) S01E02 1080p DUAL [TR-EN] WEBRip DDP5.1 ... of the Dragon (2022) S01E03 1080p DUAL [TR-EN] WEBRip DDP5.1 ... of the Dragon (2022) S01E04 1080p DUAL [TR-EN] WEBRip DDP5.1 ...
创建时间: 2022-11-26 23:25:11 大小:19.39 GB 文件数量:8 热度:4 最近下载:2025-01-18 11:35:03
    ... of the Dragon (2022) S01E01 1080p DUAL [TR-EN] WEBRip DDP5.1 ... of the Dragon (2022) S01E02 1080p DUAL [TR-EN] WEBRip DDP5.1 ... of the Dragon (2022) S01E03 1080p DUAL [TR-EN] WEBRip DDP5.1 ... of the Dragon (2022) S01E04 1080p DUAL [TR-EN] WEBRip DDP5.1 ...
创建时间: 2022-11-27 05:07:54 大小:19.39 GB 文件数量:8 热度:6 最近下载:2025-03-17 13:45:03
    {"Readme.txt": 560, "0. Websites you may like": {"1. Get Free Premium Accounts Daily On Our Discord Server!.txt": 1347, "3. FreeCoursesOnline.me Download Udacity, Masterclass, Lynda, PHLearn, etc Free.url": 290, "2. OneHack.us Premium Cracked Accounts- ...
创建时间: 2022-11-27 07:20:20 大小:3.81 GB 文件数量:6 热度:5 最近下载:2025-01-02 12:06:12
    ... 114, "Gusto en conocerte otra vez (2022) [BluRay 720p ... 1038090240, "Gusto en conocerte otra vez (2022) [BluRay 720p X264 ... 1038090240, "Gusto en conocerte otra vez (2022) [BluRay 720p X264 ... 1038090240, "Gusto en conocerte otra vez (2022) [BluRay 720p X264 ...
创建时间: 2022-11-27 08:08:25 大小:3.45 GB 文件数量:6 热度:2 最近下载:2025-01-10 15:59:05
    {"rufus-3.20.exe": 1395272, "빌드명과 파일명.txt": 504, "홍차의 꿈 - 윈도우 11.url": 265, "SW_DVD9_Win_Pro_10_22H2.1_64ARM_English_Pro_Ent_EDU_N_MLF_X23-31684.iso": 5078650880, "SW_DVD9_Win_Pro_11_22H2.3_64ARM_English_Pro_Ent_EDU_N_MLF_X23-29282.iso": 5723842560, " ...
创建时间: 2022-11-27 17:44:32 大小:25.1 GB 文件数量:8 热度:15 最近下载:2025-02-24 23:24:02
    ... ハ蛹 ー.flac": 75138288}, "2022 - PHALARIS": {"folder.jpg": 248181, " ... ain't afraid to die (2022 re-recording).flac": 40579201, " ... 2-01 mazohyst of decadence (2022 re-recording).flac": 38528323}, "2002 ... No Nami.flac": 13740829, "Dir en Grey - Dum Spiro Spero.log ...
创建时间: 2022-11-27 19:36:00 大小:5.02 GB 文件数量:182 热度:3 最近下载:2025-01-22 10:30:06
    ... Me Lies (2022) S01E01 720p DSNP WEB-DL [TR-EN-DE] DDP5 ... Me Lies (2022) S01E02 720p DSNP WEB-DL [TR-EN-DE] ... Me Lies (2022) S01E03 720p DSNP WEB-DL [TR-EN-DE] ... Me Lies (2022) S01E04 720p DSNP WEB-DL [TR-EN-DE] ... Me Lies (2022) S01E05 720p DSNP WEB-DL [TR-EN-DE] ...
创建时间: 2022-11-27 23:25:23 大小:11.89 GB 文件数量:10 热度:4 最近下载:2025-02-07 10:32:01
    ... ": 377}, "Win.All.51in1.November.2022.iso": 14409596928, "FTUApps.com Download ...
创建时间: 2022-11-28 05:34:06 大小:13.42 GB 文件数量:6 热度:20 最近下载:2025-04-16 00:38:03
    {"AtomoHD nu.url": 119, "ATOMOHD CANAL TELEGRAM.url": 114, "Gusto en conocerte otra vez (2022) [BluRay Rip][AC3 5.1 Castellano][www.nucleohd.com].avi": 1098618306}
创建时间: 2022-11-28 09:19:18 大小:1.02 GB 文件数量:3 热度:2 最近下载:2025-01-10 13:06:05